sensor_id;sensor_type;location;lat;lon;timestamp;P1;durP1;ratioP1;P2;durP2;ratioP2
6941;SDS011;3510;43.200;27.920;2023-03-17T08:58:56;1.85;;;1.70;;
6941;SDS011;3510;43.200;27.920;2023-03-17T09:01:23;1.30;;;1.23;;
6941;SDS011;3510;43.200;27.920;2023-03-17T09:03:51;1.50;;;1.40;;
6941;SDS011;3510;43.200;27.920;2023-03-17T09:06:20;1.40;;;0.83;;
6941;SDS011;3510;43.200;27.920;2023-03-17T09:08:48;2.10;;;1.90;;
6941;SDS011;3510;43.200;27.920;2023-03-17T09:11:19;4.97;;;2.35;;
6941;SDS011;3510;43.200;27.920;2023-03-17T09:13:49;1.67;;;1.57;;
6941;SDS011;3510;43.200;27.920;2023-03-17T09:16:16;2.77;;;2.33;;
6941;SDS011;3510;43.200;27.920;2023-03-17T09:18:44;4.10;;;2.03;;
6941;SDS011;3510;43.200;27.920;2023-03-17T09:21:13;3.90;;;1.87;;
6941;SDS011;3510;43.200;27.920;2023-03-17T09:23:41;4.90;;;1.90;;
6941;SDS011;3510;43.200;27.920;2023-03-17T09:26:08;3.60;;;1.20;;
6941;SDS011;3510;43.200;27.920;2023-03-17T09:28:36;2.47;;;1.33;;
6941;SDS011;3510;43.200;27.920;2023-03-17T09:31:05;2.50;;;1.53;;
6941;SDS011;3510;43.200;27.920;2023-03-17T09:33:35;3.87;;;1.43;;
6941;SDS011;3510;43.200;27.920;2023-03-17T09:36:18;1.50;;;1.40;;
6941;SDS011;3510;43.200;27.920;2023-03-17T09:38:46;6.57;;;1.80;;
6941;SDS011;3510;43.200;27.920;2023-03-17T17:11:13;1.87;;;1.77;;
6941;SDS011;3510;43.200;27.920;2023-03-17T17:13:55;3.63;;;2.10;;
6941;SDS011;3510;43.200;27.920;2023-03-17T17:16:36;6.80;;;2.10;;
6941;SDS011;3510;43.200;27.920;2023-03-17T17:19:18;2.00;;;1.90;;
6941;SDS011;3510;43.200;27.920;2023-03-17T17:21:59;4.30;;;2.73;;
6941;SDS011;3510;43.200;27.920;2023-03-17T17:24:31;5.20;;;2.10;;
6941;SDS011;3510;43.200;27.920;2023-03-17T17:27:00;4.17;;;2.17;;
6941;SDS011;3510;43.200;27.920;2023-03-17T17:29:28;5.20;;;2.37;;
6941;SDS011;3510;43.200;27.920;2023-03-17T17:31:55;3.40;;;2.83;;
6941;SDS011;3510;43.200;27.920;2023-03-17T17:34:22;6.53;;;4.50;;
6941;SDS011;3510;43.200;27.920;2023-03-17T17:36:49;4.67;;;3.60;;
6941;SDS011;3510;43.200;27.920;2023-03-17T17:39:17;6.55;;;4.85;;
6941;SDS011;3510;43.200;27.920;2023-03-17T17:41:48;7.35;;;3.85;;
6941;SDS011;3510;43.200;27.920;2023-03-17T17:44:15;6.55;;;3.75;;
6941;SDS011;3510;43.200;27.920;2023-03-17T17:46:43;6.10;;;3.05;;
6941;SDS011;3510;43.200;27.920;2023-03-17T17:49:23;4.53;;;2.72;;
6941;SDS011;3510;43.200;27.920;2023-03-17T17:51:50;2.85;;;2.60;;
6941;SDS011;3510;43.200;27.920;2023-03-17T17:54:17;3.40;;;2.30;;
6941;SDS011;3510;43.200;27.920;2023-03-17T18:02:53;4.28;;;3.03;;
6941;SDS011;3510;43.200;27.920;2023-03-17T18:05:19;4.80;;;3.00;;
6941;SDS011;3510;43.200;27.920;2023-03-17T18:07:46;8.32;;;3.78;;
6941;SDS011;3510;43.200;27.920;2023-03-17T18:10:16;4.70;;;4.30;;
6941;SDS011;3510;43.200;27.920;2023-03-17T18:12:44;3.83;;;3.53;;
6941;SDS011;3510;43.200;27.920;2023-03-17T18:15:11;8.05;;;3.67;;
6941;SDS011;3510;43.200;27.920;2023-03-17T18:17:40;6.70;;;5.43;;
6941;SDS011;3510;43.200;27.920;2023-03-17T18:20:09;6.32;;;5.60;;
6941;SDS011;3510;43.200;27.920;2023-03-17T18:22:37;5.15;;;4.00;;
6941;SDS011;3510;43.200;27.920;2023-03-17T18:25:05;5.82;;;3.50;;
6941;SDS011;3510;43.200;27.920;2023-03-17T18:27:35;8.30;;;6.00;;
6941;SDS011;3510;43.200;27.920;2023-03-17T18:30:04;6.85;;;5.07;;
6941;SDS011;3510;43.200;27.920;2023-03-17T18:32:33;5.85;;;3.97;;
6941;SDS011;3510;43.200;27.920;2023-03-17T18:35:05;11.95;;;4.57;;
6941;SDS011;3510;43.200;27.920;2023-03-17T18:37:36;5.30;;;4.47;;
6941;SDS011;3510;43.200;27.920;2023-03-17T18:40:03;3.63;;;3.17;;
6941;SDS011;3510;43.200;27.920;2023-03-17T18:42:31;8.23;;;5.28;;
6941;SDS011;3510;43.200;27.920;2023-03-17T18:44:58;11.38;;;4.78;;
6941;SDS011;3510;43.200;27.920;2023-03-17T18:47:25;6.20;;;5.55;;
6941;SDS011;3510;43.200;27.920;2023-03-17T18:52:50;5.95;;;3.47;;
6941;SDS011;3510;43.200;27.920;2023-03-17T18:55:18;5.10;;;3.47;;
6941;SDS011;3510;43.200;27.920;2023-03-17T18:57:55;10.50;;;3.58;;
6941;SDS011;3510;43.200;27.920;2023-03-17T19:00:22;12.45;;;4.75;;
6941;SDS011;3510;43.200;27.920;2023-03-17T19:02:51;12.45;;;4.40;;
6941;SDS011;3510;43.200;27.920;2023-03-17T19:05:20;10.73;;;4.82;;
6941;SDS011;3510;43.200;27.920;2023-03-17T19:07:48;8.57;;;6.70;;
6941;SDS011;3510;43.200;27.920;2023-03-17T19:10:15;10.63;;;6.38;;
6941;SDS011;3510;43.200;27.920;2023-03-17T19:12:43;10.55;;;4.97;;
6941;SDS011;3510;43.200;27.920;2023-03-17T19:15:11;10.10;;;5.55;;
6941;SDS011;3510;43.200;27.920;2023-03-17T19:17:39;6.65;;;4.50;;
6941;SDS011;3510;43.200;27.920;2023-03-17T19:20:08;8.70;;;6.07;;
6941;SDS011;3510;43.200;27.920;2023-03-17T19:22:36;8.02;;;4.95;;
6941;SDS011;3510;43.200;27.920;2023-03-17T19:25:10;7.45;;;5.28;;
6941;SDS011;3510;43.200;27.920;2023-03-17T19:27:38;6.82;;;4.43;;
6941;SDS011;3510;43.200;27.920;2023-03-17T19:30:05;5.25;;;4.00;;
6941;SDS011;3510;43.200;27.920;2023-03-17T19:32:34;7.57;;;4.32;;
6941;SDS011;3510;43.200;27.920;2023-03-17T19:35:02;5.70;;;4.68;;
6941;SDS011;3510;43.200;27.920;2023-03-17T19:37:29;6.68;;;4.60;;
6941;SDS011;3510;43.200;27.920;2023-03-17T19:39:56;7.68;;;4.28;;
6941;SDS011;3510;43.200;27.920;2023-03-17T19:42:25;8.52;;;5.65;;
6941;SDS011;3510;43.200;27.920;2023-03-17T19:44:53;8.48;;;5.53;;
6941;SDS011;3510;43.200;27.920;2023-03-17T19:47:20;6.93;;;5.60;;
6941;SDS011;3510;43.200;27.920;2023-03-17T19:49:47;8.23;;;3.95;;
6941;SDS011;3510;43.200;27.920;2023-03-17T19:52:15;7.13;;;3.35;;
6941;SDS011;3510;43.200;27.920;2023-03-17T19:54:42;4.95;;;3.88;;
6941;SDS011;3510;43.200;27.920;2023-03-17T19:57:10;4.53;;;3.30;;
6941;SDS011;3510;43.200;27.920;2023-03-17T19:59:39;4.28;;;3.38;;
6941;SDS011;3510;43.200;27.920;2023-03-17T20:02:06;5.65;;;3.70;;
6941;SDS011;3510;43.200;27.920;2023-03-17T20:04:34;5.00;;;3.85;;
6941;SDS011;3510;43.200;27.920;2023-03-17T20:07:01;5.03;;;4.30;;
6941;SDS011;3510;43.200;27.920;2023-03-17T20:09:29;6.25;;;5.07;;
6941;SDS011;3510;43.200;27.920;2023-03-17T20:11:57;4.68;;;3.42;;
6941;SDS011;3510;43.200;27.920;2023-03-17T20:14:24;3.90;;;3.20;;
6941;SDS011;3510;43.200;27.920;2023-03-17T20:16:52;4.05;;;2.90;;
6941;SDS011;3510;43.200;27.920;2023-03-17T20:19:19;3.60;;;3.00;;
6941;SDS011;3510;43.200;27.920;2023-03-17T20:22:03;4.85;;;2.95;;
6941;SDS011;3510;43.200;27.920;2023-03-17T20:24:35;4.50;;;2.40;;
6941;SDS011;3510;43.200;27.920;2023-03-17T20:27:02;4.25;;;2.90;;
6941;SDS011;3510;43.200;27.920;2023-03-17T20:29:31;4.63;;;3.47;;
6941;SDS011;3510;43.200;27.920;2023-03-17T20:31:59;3.45;;;2.42;;
6941;SDS011;3510;43.200;27.920;2023-03-17T20:34:26;3.00;;;2.47;;
6941;SDS011;3510;43.200;27.920;2023-03-17T20:36:55;3.35;;;2.40;;
6941;SDS011;3510;43.200;27.920;2023-03-17T20:39:22;4.15;;;2.67;;
6941;SDS011;3510;43.200;27.920;2023-03-17T20:41:49;4.35;;;2.05;;
6941;SDS011;3510;43.200;27.920;2023-03-17T20:44:16;2.28;;;1.92;;
6941;SDS011;3510;43.200;27.920;2023-03-17T20:46:43;3.17;;;2.17;;
6941;SDS011;3510;43.200;27.920;2023-03-17T20:49:17;3.72;;;2.50;;
6941;SDS011;3510;43.200;27.920;2023-03-17T20:52:15;4.18;;;2.60;;
6941;SDS011;3510;43.200;27.920;2023-03-17T20:54:52;4.00;;;2.72;;
6941;SDS011;3510;43.200;27.920;2023-03-17T20:57:19;7.03;;;2.92;;
6941;SDS011;3510;43.200;27.920;2023-03-17T20:59:46;4.32;;;2.00;;
6941;SDS011;3510;43.200;27.920;2023-03-17T21:02:15;27.13;;;13.60;;
6941;SDS011;3510;43.200;27.920;2023-03-17T21:04:43;7.38;;;4.80;;
6941;SDS011;3510;43.200;27.920;2023-03-17T21:09:49;4.20;;;3.80;;
6941;SDS011;3510;43.200;27.920;2023-03-17T21:12:20;12.27;;;7.33;;
6941;SDS011;3510;43.200;27.920;2023-03-17T21:14:48;3.92;;;3.17;;
6941;SDS011;3510;43.200;27.920;2023-03-17T21:17:17;2.95;;;2.42;;
6941;SDS011;3510;43.200;27.920;2023-03-17T21:19:44;8.23;;;4.57;;
6941;SDS011;3510;43.200;27.920;2023-03-17T21:22:11;5.28;;;3.17;;
6941;SDS011;3510;43.200;27.920;2023-03-17T21:24:38;4.28;;;2.63;;
6941;SDS011;3510;43.200;27.920;2023-03-17T21:27:08;3.70;;;2.28;;
6941;SDS011;3510;43.200;27.920;2023-03-17T21:29:36;2.72;;;2.10;;
6941;SDS011;3510;43.200;27.920;2023-03-17T21:32:04;4.43;;;2.50;;
6941;SDS011;3510;43.200;27.920;2023-03-17T21:34:31;2.70;;;2.50;;
6941;SDS011;3510;43.200;27.920;2023-03-17T21:37:12;2.37;;;2.17;;
6941;SDS011;3510;43.200;27.920;2023-03-17T21:39:53;2.63;;;2.28;;
6941;SDS011;3510;43.200;27.920;2023-03-17T21:42:22;5.18;;;2.13;;
6941;SDS011;3510;43.200;27.920;2023-03-17T21:44:49;4.70;;;2.53;;
6941;SDS011;3510;43.200;27.920;2023-03-17T21:47:17;3.80;;;2.65;;
6941;SDS011;3510;43.200;27.920;2023-03-17T21:49:44;5.32;;;3.03;;
6941;SDS011;3510;43.200;27.920;2023-03-17T21:52:11;4.78;;;2.97;;
6941;SDS011;3510;43.200;27.920;2023-03-17T21:54:39;4.65;;;2.72;;
6941;SDS011;3510;43.200;27.920;2023-03-17T21:57:05;9.20;;;3.63;;
6941;SDS011;3510;43.200;27.920;2023-03-17T21:59:34;3.95;;;2.90;;
6941;SDS011;3510;43.200;27.920;2023-03-17T22:02:01;4.60;;;2.63;;
6941;SDS011;3510;43.200;27.920;2023-03-17T22:04:27;6.13;;;3.28;;
6941;SDS011;3510;43.200;27.920;2023-03-17T22:06:56;4.18;;;2.70;;
6941;SDS011;3510;43.200;27.920;2023-03-17T22:09:23;3.25;;;2.95;;
6941;SDS011;3510;43.200;27.920;2023-03-17T22:11:50;6.07;;;2.35;;
6941;SDS011;3510;43.200;27.920;2023-03-17T22:14:17;5.13;;;2.00;;
6941;SDS011;3510;43.200;27.920;2023-03-17T22:16:46;2.00;;;1.60;;
6941;SDS011;3510;43.200;27.920;2023-03-17T22:19:13;2.67;;;2.03;;
6941;SDS011;3510;43.200;27.920;2023-03-17T22:21:41;3.25;;;1.75;;
6941;SDS011;3510;43.200;27.920;2023-03-17T22:24:08;1.60;;;1.40;;
6941;SDS011;3510;43.200;27.920;2023-03-17T22:26:36;2.70;;;2.10;;
6941;SDS011;3510;43.200;27.920;2023-03-17T22:29:03;3.33;;;2.15;;
6941;SDS011;3510;43.200;27.920;2023-03-17T22:31:30;3.15;;;1.60;;
6941;SDS011;3510;43.200;27.920;2023-03-17T22:34:01;1.88;;;1.65;;
6941;SDS011;3510;43.200;27.920;2023-03-17T22:36:28;5.07;;;2.75;;
6941;SDS011;3510;43.200;27.920;2023-03-17T22:38:56;3.70;;;2.30;;
6941;SDS011;3510;43.200;27.920;2023-03-17T22:41:23;3.28;;;2.35;;
6941;SDS011;3510;43.200;27.920;2023-03-17T22:43:53;3.35;;;1.90;;
6941;SDS011;3510;43.200;27.920;2023-03-17T22:46:21;1.90;;;1.40;;
6941;SDS011;3510;43.200;27.920;2023-03-17T22:48:49;2.88;;;1.42;;
6941;SDS011;3510;43.200;27.920;2023-03-17T22:51:19;3.78;;;1.60;;
6941;SDS011;3510;43.200;27.920;2023-03-17T22:53:48;3.78;;;2.50;;
6941;SDS011;3510;43.200;27.920;2023-03-17T22:56:17;6.50;;;1.57;;
6941;SDS011;3510;43.200;27.920;2023-03-17T22:58:44;2.13;;;1.52;;
6941;SDS011;3510;43.200;27.920;2023-03-17T23:01:12;6.30;;;2.70;;
6941;SDS011;3510;43.200;27.920;2023-03-17T23:03:40;3.15;;;1.30;;
6941;SDS011;3510;43.200;27.920;2023-03-17T23:06:09;2.75;;;1.65;;
6941;SDS011;3510;43.200;27.920;2023-03-17T23:08:38;1.75;;;1.63;;
6941;SDS011;3510;43.200;27.920;2023-03-17T23:11:09;2.10;;;1.70;;
6941;SDS011;3510;43.200;27.920;2023-03-17T23:13:37;2.85;;;1.80;;
6941;SDS011;3510;43.200;27.920;2023-03-17T23:16:06;1.40;;;1.15;;
6941;SDS011;3510;43.200;27.920;2023-03-17T23:18:33;1.53;;;1.43;;
6941;SDS011;3510;43.200;27.920;2023-03-17T23:23:27;1.80;;;1.70;;
6941;SDS011;3510;43.200;27.920;2023-03-17T23:25:55;2.47;;;2.27;;
6941;SDS011;3510;43.200;27.920;2023-03-17T23:28:23;2.57;;;1.30;;
6941;SDS011;3510;43.200;27.920;2023-03-17T23:33:16;2.57;;;1.80;;
6941;SDS011;3510;43.200;27.920;2023-03-17T23:35:45;1.60;;;0.87;;
6941;SDS011;3510;43.200;27.920;2023-03-17T23:38:14;2.80;;;1.23;;
6941;SDS011;3510;43.200;27.920;2023-03-17T23:40:43;5.57;;;1.30;;
6941;SDS011;3510;43.200;27.920;2023-03-17T23:43:12;1.10;;;1.10;;
6941;SDS011;3510;43.200;27.920;2023-03-17T23:48:20;2.17;;;1.70;;
6941;SDS011;3510;43.200;27.920;2023-03-17T23:50:49;2.30;;;1.60;;
6941;SDS011;3510;43.200;27.920;2023-03-17T23:53:17;2.20;;;1.93;;
6941;SDS011;3510;43.200;27.920;2023-03-17T23:55:45;3.55;;;1.70;;
6941;SDS011;3510;43.200;27.920;2023-03-17T23:58:13;2.33;;;1.95;;
